Mula, Spain
Current Conditions -  °F | °C
As of 8:00 AM on Monday 22 Dec 2014 (Local Time) from LELC Reporting Station
Broken Clouds Broken Clouds  
Wind Chill: 50°   Ceiling: 3000
Heat Index: 50°   Visibility: 4mi
Dew Point: 48°   Wind: 5mph
Humidity: 94%   Direction: 340°NNW
Pressure: 30.48"   Gusts: NA
Location:  38.04°N, 1.49°W
Report Text: LELC 220700Z 34004KT 7000 3000SW BKN030 10/09 Q1032 NOSIG
Loading
Personal Weather Stations






























Interactive Weather Map New forecast layout! Learn more

10-Day Weather Forecast

Advertisements
Track Severe Weather on mobile